createdAt,value
2022-09-15T00:00:10.164Z,13.2
2022-09-15T00:05:48.744Z,13.1
2022-09-15T00:11:10.591Z,13
2022-09-15T00:16:49.714Z,12.9
2022-09-15T00:22:27.922Z,12.9
2022-09-15T00:28:04.345Z,12.8
2022-09-15T00:33:42.108Z,12.7
2022-09-15T00:39:19.989Z,12.7
2022-09-15T00:44:56.733Z,12.7
2022-09-15T00:50:58.054Z,12.6
2022-09-15T00:56:35.706Z,12.5
2022-09-15T01:01:56.940Z,12.5
2022-09-15T01:07:19.524Z,12.4
2022-09-15T01:12:57.124Z,12.4
2022-09-15T01:18:33.785Z,12.3
2022-09-15T01:23:43.930Z,12.2
2022-09-15T01:29:33.947Z,12.2
2022-09-15T01:35:10.041Z,12.1
2022-09-15T01:40:47.659Z,12.1
2022-09-15T01:46:10.400Z,12.1
2022-09-15T01:51:46.934Z,12.1
2022-09-15T01:57:23.579Z,12.1
2022-09-15T02:03:01.333Z,12.1
2022-09-15T02:08:38.092Z,11.9
2022-09-15T02:13:59.734Z,11.9
2022-09-15T02:18:35.665Z,11.9
2022-09-15T02:24:12.889Z,11.8
2022-09-15T02:29:50.166Z,11.9
2022-09-15T02:35:32.328Z,11.9
2022-09-15T02:41:09.240Z,11.8
2022-09-15T02:46:47.764Z,11.9
2022-09-15T02:52:24.861Z,11.9
2022-09-15T02:58:02.776Z,11.9
2022-09-15T03:03:42.929Z,11.8
2022-09-15T03:09:04.470Z,11.7
2022-09-15T03:14:41.981Z,11.6
2022-09-15T03:20:04.474Z,11.5
2022-09-15T03:25:41.790Z,11.4
2022-09-15T03:31:19.812Z,11.3
2022-09-15T03:37:00.412Z,11.3
2022-09-15T03:42:38.008Z,11.1
2022-09-15T03:48:19.349Z,11.1
2022-09-15T03:53:56.548Z,11.1
2022-09-15T03:59:18.819Z,11.1
2022-09-15T04:05:02.274Z,11
2022-09-15T04:10:38.609Z,11
2022-09-15T04:16:20.957Z,11.1
2022-09-15T04:21:58.714Z,11.1
2022-09-15T04:27:39.225Z,11.2
2022-09-15T04:33:20.197Z,11.3
2022-09-15T04:38:56.902Z,11.5
2022-09-15T04:44:34.039Z,11.7
2022-09-15T04:50:12.119Z,12
2022-09-15T04:55:51.169Z,12.6
2022-09-15T05:01:28.620Z,13.8
2022-09-15T05:07:07.131Z,15.3
2022-09-15T05:12:48.280Z,16.9
2022-09-15T05:18:26.442Z,18.6
2022-09-15T05:24:09.912Z,20.2
2022-09-15T05:29:31.751Z,22.1
2022-09-15T05:35:26.012Z,24.4
2022-09-15T05:41:04.235Z,27
2022-09-15T05:46:41.819Z,29.9
2022-09-15T05:52:19.070Z,33
2022-09-15T05:57:57.150Z,36.3
2022-09-15T06:03:33.879Z,39.6
2022-09-15T06:09:14.879Z,42.7
2022-09-15T06:14:52.696Z,45.8
2022-09-15T06:20:30.163Z,48.8
2022-09-15T06:26:09.303Z,52.1
2022-09-15T06:31:46.894Z,55.7
2022-09-15T06:37:24.337Z,59.1
2022-09-15T06:43:27.488Z,62.8
2022-09-15T06:49:24.978Z,58.8
2022-09-15T06:55:02.322Z,49.8
2022-09-15T07:00:39.742Z,55.8
2022-09-15T07:06:21.658Z,62.4
2022-09-15T07:12:03.825Z,54.6
2022-09-15T07:17:42.260Z,53.4
2022-09-15T07:23:20.024Z,62.2
2022-09-15T07:28:57.920Z,58.4
2022-09-15T07:34:39.531Z,54.3
2022-09-15T07:40:20.107Z,65.8
2022-09-15T07:46:01.791Z,56.7
2022-09-15T07:51:39.470Z,56.2
2022-09-15T07:57:17.376Z,65.8
2022-09-15T08:02:40.703Z,57.1
2022-09-15T08:08:21.694Z,62.8
2022-09-15T08:14:09.953Z,63
2022-09-15T08:24:54.081Z,60.1
2022-09-15T08:30:16.501Z,67.8
2022-09-15T08:35:54.582Z,60.9
2022-09-15T08:41:32.256Z,62.9
2022-09-15T08:47:16.603Z,62.7
2022-09-15T08:53:17.483Z,62.8
2022-09-15T08:58:57.399Z,63.7
2022-09-15T09:04:36.470Z,63.6
2022-09-15T09:09:58.305Z,64.8
2022-09-15T09:15:21.407Z,66.1
2022-09-15T09:21:00.826Z,66.3
2022-09-15T09:27:00.697Z,64.6
2022-09-15T09:32:23.978Z,65.4
2022-09-15T09:37:47.395Z,66.8
2022-09-15T09:43:24.960Z,66.4
2022-09-15T09:49:04.033Z,68
2022-09-15T09:54:41.877Z,68.4
2022-09-15T10:00:19.299Z,64.9
2022-09-15T10:05:58.337Z,67.4
2022-09-15T10:11:36.707Z,65.9
2022-09-15T10:17:14.629Z,69.1
2022-09-15T10:22:53.732Z,69.7
2022-09-15T10:28:19.941Z,71.1
2022-09-15T10:33:42.936Z,71
2022-09-15T10:39:21.330Z,72
2022-09-15T10:44:59.781Z,71.9
2022-09-15T10:50:38.140Z,69.6
2022-09-15T10:56:39.409Z,67.4
2022-09-15T11:02:18.356Z,63.7
2022-09-15T11:07:57.960Z,61.2
2022-09-15T11:13:41.135Z,59.7
2022-09-15T11:19:19.683Z,58.6
2022-09-15T11:24:57.726Z,59.1
2022-09-15T11:30:35.669Z,63.9
2022-09-15T11:36:14.614Z,72.7
2022-09-15T11:41:56.072Z,74.4
2022-09-15T11:47:34.037Z,66.7
2022-09-15T11:53:11.587Z,69.4
2022-09-15T11:58:55.036Z,68.9
2022-09-15T12:04:33.288Z,69.1
2022-09-15T12:09:55.348Z,67.6
2022-09-15T12:15:38.944Z,68.7
2022-09-15T12:21:43.341Z,68.9
2022-09-15T12:27:21.052Z,68.6
2022-09-15T12:33:02.133Z,68.6
2022-09-15T12:38:40.279Z,68.8
2022-09-15T12:44:03.204Z,67.9
2022-09-15T12:49:41.168Z,67.8
2022-09-15T12:55:20.320Z,70
2022-09-15T13:01:23.901Z,74.5
2022-09-15T13:07:05.035Z,65.2
2022-09-15T13:12:45.901Z,67.9
2022-09-15T13:18:24.308Z,71.3
2022-09-15T13:24:02.244Z,70.5
2022-09-15T13:29:43.319Z,63.3
2022-09-15T13:38:02.997Z,64.3
2022-09-15T13:43:53.902Z,66.6
2022-09-15T13:49:31.876Z,69
2022-09-15T13:55:09.797Z,70.1
2022-09-15T14:02:34.085Z,67.6
2022-09-15T14:08:17.122Z,64.1
2022-09-15T14:13:54.861Z,60.6
2022-09-15T14:19:38.939Z,57.1
2022-09-15T14:25:21.220Z,53.4
2022-09-15T14:31:02.336Z,52.4
2022-09-15T14:36:48.306Z,52.8
2022-09-15T14:42:26.930Z,52.9
